createdAt,value
2023-02-11T00:00:15.715Z,101839.13
2023-02-11T00:05:39.216Z,101831.83
2023-02-11T00:11:45.191Z,101817.98
2023-02-11T00:25:05.460Z,101808.34
2023-02-11T00:31:35.518Z,101802.62
2023-02-11T00:44:56.060Z,101789.77
2023-02-11T00:57:03.422Z,101777.09
2023-02-11T01:02:06.839Z,101766.55
2023-02-11T01:07:10.208Z,101758.14
2023-02-11T01:12:13.703Z,101759.15
2023-02-11T01:17:17.692Z,101750.74
2023-02-11T01:22:21.150Z,101736.12
2023-02-11T01:27:24.894Z,101729.73
2023-02-11T01:32:28.373Z,101719.62
2023-02-11T01:37:34.505Z,101715.29
2023-02-11T01:42:38.133Z,101705.95
2023-02-11T01:47:41.571Z,101693.64
2023-02-11T01:52:46.630Z,101684.71
2023-02-11T01:57:55.750Z,101671.42
2023-02-11T02:03:04.783Z,101672.89
2023-02-11T02:08:17.536Z,101665.55
2023-02-11T02:13:21.245Z,101651.84
2023-02-11T02:18:39.745Z,101649.17
2023-02-11T02:24:14.261Z,101636.15
2023-02-11T02:29:50.131Z,101621.70
2023-02-11T02:35:01.372Z,101621.50
2023-02-11T02:40:09.618Z,101607.77
2023-02-11T02:45:14.225Z,101600.48
2023-02-11T02:50:24.435Z,101590.77
2023-02-11T02:55:42.565Z,101579.30
2023-02-11T03:01:02.983Z,101574.41
2023-02-11T03:06:11.178Z,101561.59
2023-02-11T03:11:19.005Z,101553.41
2023-02-11T03:16:25.722Z,101553.78
2023-02-11T03:21:35.436Z,101556.02
2023-02-11T03:26:43.983Z,101572.31
2023-02-11T03:31:56.072Z,101572.33
2023-02-11T03:37:05.942Z,101573.66
2023-02-11T03:42:11.708Z,101567.23
2023-02-11T03:47:18.914Z,101576.20
2023-02-11T03:52:24.942Z,101568.67
2023-02-11T03:57:28.463Z,101557.17
2023-02-11T04:02:34.727Z,101551.03
2023-02-11T04:07:38.392Z,101538.80
2023-02-11T04:12:42.043Z,101530.98
2023-02-11T04:17:45.511Z,101516.70
2023-02-11T04:22:48.922Z,101505.62
2023-02-11T04:27:52.471Z,101495.59
2023-02-11T04:32:56.294Z,101483.50
2023-02-11T04:37:59.776Z,101479.31
2023-02-11T04:43:03.244Z,101482.09
2023-02-11T04:48:06.958Z,101485.54
2023-02-11T04:53:10.426Z,101487.66
2023-02-11T04:58:13.824Z,101479.55
2023-02-11T05:03:17.338Z,101475.87
2023-02-11T05:08:20.832Z,101460.70
2023-02-11T05:13:24.205Z,101444.25
2023-02-11T05:18:27.653Z,101438.38
2023-02-11T05:23:31.018Z,101433.02
2023-02-11T05:28:34.741Z,101430.02
2023-02-11T05:33:38.629Z,101433.13
2023-02-11T05:38:42.745Z,101429.95
2023-02-11T05:43:49.273Z,101431.86
2023-02-11T05:48:52.831Z,101434.09
2023-02-11T05:53:56.510Z,101423.92
2023-02-11T05:59:00.062Z,101421.75
2023-02-11T06:04:03.541Z,101420.89
2023-02-11T06:09:07.389Z,101427.52
2023-02-11T06:14:10.994Z,101418.93
2023-02-11T06:19:14.474Z,101416.39
2023-02-11T06:24:38.386Z,101418.05
2023-02-11T06:29:41.467Z,101417.23
2023-02-11T06:34:45.269Z,101409.23
2023-02-11T06:39:49.043Z,101412.09
2023-02-11T06:44:52.467Z,101408.11
2023-02-11T06:49:55.933Z,101406.80
2023-02-11T06:54:59.456Z,101400.95
2023-02-11T07:00:03.246Z,101407.27
2023-02-11T07:05:08.135Z,101403.94
2023-02-11T07:10:11.719Z,101397.41
2023-02-11T07:15:15.198Z,101384.98
2023-02-11T07:20:18.861Z,101371.15
2023-02-11T07:25:22.587Z,101384.73
2023-02-11T07:30:26.186Z,101394.98
2023-02-11T07:35:30.092Z,101382.17
2023-02-11T07:40:33.709Z,101383.52
2023-02-11T07:45:39.568Z,101390.31
2023-02-11T07:50:43.173Z,101381.35
2023-02-11T07:55:46.672Z,101382.73
2023-02-11T08:01:18.731Z,101386.27
2023-02-11T08:07:44.865Z,101391.23
2023-02-11T08:13:53.803Z,101384.88
2023-02-11T08:26:26.789Z,101388.19
2023-02-11T08:31:38.977Z,101397.62
2023-02-11T08:36:51.856Z,101390.66
2023-02-11T08:42:15.874Z,101383.70
2023-02-11T08:47:27.633Z,101380.11
2023-02-11T08:52:38.202Z,101376.22
2023-02-11T08:58:26.768Z,101376.23
2023-02-11T09:03:45.737Z,101375.88
2023-02-11T09:09:35.008Z,101344.18
2023-02-11T09:21:32.169Z,101334.40
2023-02-11T09:27:39.472Z,101327.41
2023-02-11T09:33:06.350Z,101315.61
2023-02-11T09:45:13.336Z,101310.70
2023-02-11T09:50:48.885Z,101309.13
2023-02-11T09:56:16.525Z,101305.33
2023-02-11T10:07:53.093Z,101310.33
2023-02-11T10:13:48.646Z,101289.09
2023-02-11T10:19:39.212Z,101290.05
2023-02-11T10:31:19.513Z,101256.80
2023-02-11T10:36:33.319Z,101264.57
2023-02-11T10:41:54.587Z,101256.11
2023-02-11T10:47:35.025Z,101264.15
2023-02-11T10:52:47.754Z,101263.16
2023-02-11T10:58:08.881Z,101264.21
2023-02-11T11:03:43.987Z,101267.63
2023-02-11T11:08:59.493Z,101264.02
2023-02-11T11:14:30.211Z,101269.80
2023-02-11T11:19:53.411Z,101264.55
2023-02-11T11:25:01.221Z,101257.08
2023-02-11T11:30:16.190Z,101258.86
2023-02-11T11:35:33.445Z,101262.04
2023-02-11T11:41:24.274Z,101244.39
2023-02-11T11:46:49.229Z,101255.54
2023-02-11T11:52:05.907Z,101263.42
2023-02-11T11:57:32.398Z,101248.37
2023-02-11T12:03:05.213Z,101248.17
2023-02-11T12:08:30.439Z,101231.08
2023-02-11T12:14:07.286Z,101230.40
2023-02-11T12:20:08.284Z,101214.73
2023-02-11T12:25:29.028Z,101203.64
2023-02-11T12:31:06.341Z,101212.16
2023-02-11T12:36:33.162Z,101207.77
2023-02-11T12:42:14.400Z,101184.59
2023-02-11T12:47:39.654Z,101176.70
2023-02-11T12:53:10.702Z,101180.77
2023-02-11T12:58:32.560Z,101197.49
2023-02-11T13:03:57.824Z,101199.25
2023-02-11T13:15:05.762Z,101184.26
2023-02-11T13:20:33.037Z,101187.83
2023-02-11T13:26:00.700Z,101196.70
2023-02-11T13:31:13.810Z,101198.23
2023-02-11T13:36:33.692Z,101190.56
2023-02-11T13:42:04.434Z,101180.83
2023-02-11T13:47:32.658Z,101174.01
2023-02-11T13:52:42.326Z,101182.50
2023-02-11T13:58:28.397Z,101178.56
2023-02-11T14:03:58.173Z,101176.17
2023-02-11T14:09:53.111Z,101176.67
2023-02-11T14:15:33.589Z,101185.87
2023-02-11T14:21:20.362Z,101198.95
2023-02-11T14:26:46.772Z,101216.48
2023-02-11T14:32:06.133Z,101215.91
2023-02-11T14:37:31.320Z,101235.66
2023-02-11T14:42:46.068Z,101232.57
2023-02-11T14:48:11.469Z,101242.21
2023-02-11T14:53:38.008Z,101249.48
2023-02-11T14:58:54.371Z,101245.97
2023-02-11T15:04:26.362Z,101247.76
2023-02-11T15:09:48.144Z,101245.45
2023-02-11T15:15:15.487Z,101243.28
2023-02-11T15:20:39.410Z,101240.97
2023-02-11T15:26:02.870Z,101249.75
2023-02-11T15:31:20.502Z,101252.08
2023-02-11T15:36:42.933Z,101254.77
2023-02-11T15:41:57.126Z,101263.08
2023-02-11T15:47:17.121Z,101268.83
2023-02-11T15:52:46.937Z,101272.23
2023-02-11T15:57:59.554Z,101279.85
2023-02-11T16:03:19.268Z,101285.61
2023-02-11T16:08:39.662Z,101278.83
2023-02-11T16:13:58.749Z,101284.41
2023-02-11T16:19:17.316Z,101285.13
2023-02-11T16:24:40.332Z,101288.53
2023-02-11T16:29:56.911Z,101288.89
2023-02-11T16:35:08.582Z,101298.80
2023-02-11T16:40:26.285Z,101299.83
2023-02-11T16:45:45.530Z,101304.63
2023-02-11T16:51:02.335Z,101316.40
2023-02-11T16:56:19.780Z,101331.77
2023-02-11T17:01:26.541Z,101336.55
2023-02-11T17:06:45.027Z,101350.36
2023-02-11T17:11:54.991Z,101356.85
2023-02-11T17:17:02.885Z,101364.89
2023-02-11T17:22:12.371Z,101375.79
2023-02-11T17:27:25.900Z,101372.73
2023-02-11T17:32:39.387Z,101374.60
2023-02-11T17:37:48.073Z,101381.02
2023-02-11T17:42:59.792Z,101389.90
2023-02-11T17:48:15.615Z,101386.85
2023-02-11T17:53:29.381Z,101390.95
2023-02-11T17:58:36.946Z,101403.20
2023-02-11T18:04:01.048Z,101388.35
2023-02-11T18:09:12.334Z,101392.41
2023-02-11T18:14:21.365Z,101395.98
2023-02-11T18:19:37.220Z,101399.58
2023-02-11T18:24:51.362Z,101400.45
2023-02-11T18:30:19.493Z,101407.45
2023-02-11T18:35:27.701Z,101409.36
2023-02-11T18:40:32.122Z,101406.96
2023-02-11T18:45:35.657Z,101405.10
2023-02-11T18:50:40.551Z,101408.02
2023-02-11T18:55:44.904Z,101420.16
2023-02-11T19:00:49.635Z,101430.70
2023-02-11T19:05:54.625Z,101438.73
2023-02-11T19:10:58.669Z,101443.51
2023-02-11T19:16:15.250Z,101448.96
2023-02-11T19:21:50.885Z,101449.66
2023-02-11T19:26:58.821Z,101461.48
2023-02-11T19:32:08.189Z,101461.16
2023-02-11T19:37:19.202Z,101462.68
2023-02-11T19:42:40.871Z,101463.16
2023-02-11T19:47:51.343Z,101469.80
2023-02-11T19:53:09.524Z,101473.60
2023-02-11T19:58:35.027Z,101474.45
2023-02-11T20:03:53.317Z,101481.10
2023-02-11T20:09:19.033Z,101487.60
2023-02-11T20:14:34.198Z,101490.00
2023-02-11T20:19:55.215Z,101492.92
2023-02-11T20:25:11.658Z,101501.65
2023-02-11T20:30:22.199Z,101509.98
2023-02-11T20:35:41.864Z,101514.39
2023-02-11T20:40:49.520Z,101517.95
2023-02-11T20:46:10.713Z,101525.27
2023-02-11T20:51:23.556Z,101528.67
2023-02-11T20:56:32.101Z,101534.62
2023-02-11T21:01:43.972Z,101544.84
2023-02-11T21:07:09.203Z,101546.41
2023-02-11T21:12:28.747Z,101565.17
2023-02-11T21:17:42.808Z,101579.54
2023-02-11T21:22:57.750Z,101588.10
2023-02-11T21:28:23.540Z,101587.77
2023-02-11T21:33:35.947Z,101590.12
2023-02-11T21:38:57.695Z,101595.92
2023-02-11T21:44:12.331Z,101605.48
2023-02-11T21:49:23.031Z,101613.80
2023-02-11T21:54:33.090Z,101618.77
2023-02-11T21:59:44.606Z,101611.80
2023-02-11T22:04:55.173Z,101627.64
2023-02-11T22:10:04.818Z,101641.45
2023-02-11T22:15:11.047Z,101640.99
2023-02-11T22:20:16.565Z,101647.28
2023-02-11T22:25:31.400Z,101662.77
2023-02-11T22:30:41.109Z,101669.44
2023-02-11T22:35:48.456Z,101668.92
2023-02-11T22:40:54.129Z,101678.61
2023-02-11T22:46:06.367Z,101683.73
2023-02-11T22:51:17.824Z,101685.13
2023-02-11T22:56:24.930Z,101693.51
2023-02-11T23:01:31.418Z,101690.27
2023-02-11T23:06:42.752Z,101689.05
2023-02-11T23:11:53.945Z,101697.73
2023-02-11T23:16:59.942Z,101691.06
2023-02-11T23:22:08.002Z,101703.67
2023-02-11T23:27:19.987Z,101705.55
2023-02-11T23:32:25.321Z,101707.41
2023-02-11T23:37:32.475Z,101713.23
2023-02-11T23:42:37.616Z,101718.89
2023-02-11T23:47:42.640Z,101726.58
2023-02-11T23:52:55.225Z,101736.48
2023-02-11T23:58:00.805Z,101736.48
